createdAt,value
2019-05-26T00:05:17.529Z,11.45
2019-05-26T00:11:21.554Z,11.88
2019-05-26T00:17:23.741Z,13.10
2019-05-26T00:23:26.114Z,12.20
2019-05-26T00:29:28.473Z,12.00
2019-05-26T00:35:30.834Z,10.13
2019-05-26T00:41:33.333Z,11.43
2019-05-26T00:47:35.846Z,10.82
2019-05-26T00:53:38.185Z,10.23
2019-05-26T00:59:40.599Z,10.98
2019-05-26T01:05:43.035Z,9.13
2019-05-26T01:11:45.425Z,9.03
2019-05-26T01:17:48.054Z,8.95
2019-05-26T01:23:50.268Z,7.90
2019-05-26T01:29:52.591Z,8.20
2019-05-26T01:35:55.031Z,9.13
2019-05-26T01:41:57.448Z,9.98
2019-05-26T01:47:59.625Z,10.25
2019-05-26T01:54:02.102Z,9.70
2019-05-26T02:00:05.830Z,9.63
2019-05-26T02:06:08.172Z,9.90
2019-05-26T02:12:10.593Z,9.88
2019-05-26T02:18:13.054Z,10.88
2019-05-26T02:24:15.531Z,8.38
2019-05-26T02:30:18.066Z,8.73
2019-05-26T02:36:20.449Z,10.43
2019-05-26T02:42:22.650Z,10.20
2019-05-26T02:48:25.032Z,9.40
2019-05-26T02:54:27.325Z,11.43
2019-05-26T03:00:40.119Z,9.40
2019-05-26T03:06:44.669Z,9.78
2019-05-26T03:12:49.170Z,8.25
2019-05-26T03:18:52.282Z,8.65
2019-05-26T03:24:57.743Z,8.65
2019-05-26T03:31:00.049Z,8.33
2019-05-26T03:37:02.411Z,9.43
2019-05-26T03:43:04.583Z,10.50
2019-05-26T03:49:06.868Z,10.38
2019-05-26T03:55:09.163Z,11.43
2019-05-26T04:01:11.454Z,10.23
2019-05-26T04:07:13.891Z,10.08
2019-05-26T04:13:16.268Z,11.03
2019-05-26T04:19:19.514Z,12.28
2019-05-26T04:25:22.123Z,10.85
2019-05-26T04:31:24.268Z,10.65
2019-05-26T04:37:26.652Z,10.05
2019-05-26T04:43:29.035Z,10.93
2019-05-26T04:49:31.310Z,9.35
2019-05-26T04:55:33.633Z,9.83
2019-05-26T05:01:36.237Z,7.90
2019-05-26T05:07:38.537Z,8.25
2019-05-26T05:13:40.796Z,9.15
2019-05-26T05:19:42.993Z,6.80
2019-05-26T05:25:45.244Z,6.92
2019-05-26T05:31:47.572Z,7.12
2019-05-26T05:37:51.880Z,8.28
2019-05-26T05:43:55.313Z,7.25
2019-05-26T05:50:06.076Z,7.62
2019-05-26T05:56:09.923Z,7.60
2019-05-26T06:02:18.482Z,10.28
2019-05-26T06:08:21.740Z,7.97
2019-05-26T06:14:26.113Z,8.10
2019-05-26T06:20:28.300Z,9.40
2019-05-26T06:26:30.701Z,8.73
2019-05-26T06:32:34.645Z,9.88
2019-05-26T06:38:39.524Z,10.50
2019-05-26T06:44:53.475Z,9.73
2019-05-26T06:50:49.808Z,9.45
2019-05-26T06:56:52.509Z,10.30
2019-05-26T07:02:57.149Z,9.90
2019-05-26T07:08:59.385Z,8.38
2019-05-26T07:15:05.370Z,9.23
2019-05-26T07:21:08.120Z,9.88
2019-05-26T07:27:10.518Z,7.83
2019-05-26T07:33:12.988Z,8.63
2019-05-26T07:39:15.146Z,8.08
2019-05-26T07:45:17.493Z,7.12
2019-05-26T07:51:19.930Z,8.75
2019-05-26T07:57:22.196Z,8.45
2019-05-26T08:03:24.489Z,8.68
2019-05-26T08:09:27.825Z,6.60
2019-05-26T08:15:30.132Z,8.15
2019-05-26T08:21:32.329Z,8.53
2019-05-26T08:27:34.603Z,6.65
2019-05-26T08:33:36.902Z,8.45
2019-05-26T08:39:39.339Z,6.25
2019-05-26T08:45:41.635Z,6.85
2019-05-26T08:51:44.000Z,6.75
2019-05-26T08:57:46.310Z,7.03
2019-05-26T09:03:48.751Z,6.87
2019-05-26T09:09:50.991Z,6.78
2019-05-26T09:15:53.305Z,5.75
2019-05-26T09:21:55.572Z,5.72
2019-05-26T09:27:57.914Z,5.90
2019-05-26T09:34:00.153Z,5.55
2019-05-26T09:40:03.526Z,5.47
2019-05-26T09:46:05.804Z,6.95
2019-05-26T09:52:08.105Z,6.17
2019-05-26T09:58:10.500Z,4.97
2019-05-26T10:04:12.761Z,4.87
2019-05-26T10:10:15.660Z,6.40
2019-05-26T10:16:17.965Z,4.90
2019-05-26T10:22:20.675Z,4.97
2019-05-26T10:28:23.008Z,6.05
2019-05-26T10:34:25.334Z,5.35
2019-05-26T10:40:27.732Z,6.15
2019-05-26T10:46:30.366Z,5.05
2019-05-26T10:52:32.756Z,5.78
2019-05-26T10:58:35.006Z,5.28
2019-05-26T11:04:37.223Z,5.97
2019-05-26T11:10:39.512Z,5.17
2019-05-26T11:16:41.836Z,4.83
2019-05-26T11:22:44.023Z,7.28
2019-05-26T11:28:46.264Z,4.87
2019-05-26T11:35:00.722Z,4.50
2019-05-26T11:40:52.591Z,4.20
2019-05-26T11:46:55.088Z,5.58
2019-05-26T11:52:57.337Z,4.00
2019-05-26T11:58:59.631Z,4.78
2019-05-26T12:05:02.320Z,4.95
2019-05-26T12:11:04.627Z,3.80
2019-05-26T12:17:07.052Z,5.60
2019-05-26T12:23:09.223Z,5.72
2019-05-26T12:29:11.472Z,4.15
2019-05-26T12:35:16.569Z,6.40
2019-05-26T12:41:21.432Z,4.78
2019-05-26T12:47:24.818Z,5.60
2019-05-26T12:53:27.227Z,5.05
2019-05-26T12:59:29.451Z,5.62
2019-05-26T13:05:31.853Z,5.15
2019-05-26T13:11:35.347Z,3.62
2019-05-26T13:17:38.183Z,3.25
2019-05-26T13:23:40.333Z,3.35
2019-05-26T13:29:42.577Z,3.72
2019-05-26T13:35:45.389Z,5.10
2019-05-26T13:41:47.684Z,3.12
2019-05-26T13:47:51.107Z,4.53
2019-05-26T13:53:53.414Z,2.95
2019-05-26T13:59:55.707Z,3.87
2019-05-26T14:05:58.107Z,3.40
2019-05-26T14:12:00.567Z,3.65
2019-05-26T14:18:03.714Z,3.10
2019-05-26T14:30:42.416Z,3.47
2019-05-26T14:36:45.918Z,2.95
2019-05-26T14:42:48.382Z,3.12
2019-05-26T14:48:52.955Z,2.77
2019-05-26T14:54:55.278Z,2.85
2019-05-26T15:00:57.562Z,2.85
2019-05-26T15:06:59.948Z,3.42
2019-05-26T15:13:08.826Z,3.40
2019-05-26T15:19:11.563Z,3.35
2019-05-26T15:25:14.046Z,3.27
2019-05-26T15:31:16.619Z,3.35
2019-05-26T15:37:19.026Z,3.02
2019-05-26T15:43:21.351Z,2.72
2019-05-26T15:49:25.331Z,1.98
2019-05-26T15:55:27.796Z,1.98
2019-05-26T16:01:30.354Z,4.67
2019-05-26T16:07:32.676Z,2.58
2019-05-26T16:13:35.325Z,2.25
2019-05-26T16:19:37.696Z,2.83
2019-05-26T16:25:40.366Z,1.90
2019-05-26T16:31:42.975Z,1.90
2019-05-26T16:37:45.451Z,3.33
2019-05-26T16:43:49.898Z,3.60
2019-05-26T16:49:54.281Z,2.20
2019-05-26T16:55:56.631Z,3.12
2019-05-26T17:01:59.311Z,2.72
2019-05-26T17:08:01.688Z,2.87
2019-05-26T17:14:04.234Z,2.20
2019-05-26T17:20:07.185Z,2.52
2019-05-26T17:26:09.554Z,3.90
2019-05-26T17:32:11.880Z,3.65
2019-05-26T17:38:14.265Z,2.40
2019-05-26T17:44:16.765Z,2.67
2019-05-26T17:50:20.913Z,2.75
2019-05-26T17:56:23.343Z,2.58
2019-05-26T18:02:29.721Z,3.05
2019-05-26T18:08:36.170Z,2.10
2019-05-26T18:14:37.362Z,2.60
2019-05-26T18:20:41.784Z,2.30
2019-05-26T18:26:46.278Z,2.85
2019-05-26T18:32:49.237Z,3.40
2019-05-26T18:38:51.687Z,2.40
2019-05-26T18:44:56.686Z,3.37
2019-05-26T18:50:59.289Z,3.77
2019-05-26T18:57:01.720Z,3.37
2019-05-26T19:03:05.235Z,4.78
2019-05-26T19:09:08.452Z,3.50
2019-05-26T19:15:11.161Z,3.62
2019-05-26T19:21:13.464Z,5.58
2019-05-26T19:27:15.983Z,5.20
2019-05-26T19:33:18.353Z,4.25
2019-05-26T19:39:20.719Z,4.60
2019-05-26T19:45:23.371Z,4.35
2019-05-26T19:51:25.866Z,4.40
2019-05-26T19:57:28.266Z,5.95
2019-05-26T20:03:30.744Z,4.45
2019-05-26T20:09:33.081Z,4.90
2019-05-26T20:15:35.566Z,4.95
2019-05-26T20:21:38.042Z,5.35
2019-05-26T20:27:40.605Z,4.35
2019-05-26T20:33:43.017Z,5.28
2019-05-26T20:39:45.410Z,4.42
2019-05-26T20:45:48.225Z,4.30
2019-05-26T20:51:50.472Z,5.55
2019-05-26T20:57:52.805Z,5.25
2019-05-26T21:03:55.203Z,4.47
2019-05-26T21:09:57.657Z,4.95
2019-05-26T21:16:00.344Z,4.92
2019-05-26T21:22:03.038Z,3.55
2019-05-26T21:28:05.716Z,5.08
2019-05-26T21:34:09.023Z,5.05
2019-05-26T21:40:11.890Z,4.62
2019-05-26T21:46:14.132Z,6.28
2019-05-26T21:52:16.764Z,4.60
2019-05-26T21:58:19.195Z,5.78
2019-05-26T22:04:21.771Z,6.22
2019-05-26T22:10:24.133Z,6.80
2019-05-26T22:16:26.495Z,7.00
2019-05-26T22:22:29.869Z,7.90
2019-05-26T22:28:32.404Z,6.85
2019-05-26T22:34:35.837Z,6.90
2019-05-26T22:40:38.122Z,6.35
2019-05-26T22:46:40.688Z,5.53
2019-05-26T22:52:42.985Z,6.58
2019-05-26T22:58:46.390Z,7.22
2019-05-26T23:04:48.728Z,5.97
2019-05-26T23:10:51.094Z,7.10
2019-05-26T23:16:53.426Z,7.30
2019-05-26T23:22:57.117Z,5.92
2019-05-26T23:28:59.485Z,6.37
2019-05-26T23:35:02.134Z,6.28
2019-05-26T23:41:04.681Z,6.90
2019-05-26T23:47:07.094Z,5.42
2019-05-26T23:53:09.630Z,5.87
2019-05-26T23:59:11.903Z,5.95
